LiveATC.Net - Listen to live air traffic control over the Internet!


ICAO: LGAV  IATA: ATH   Airport: Eleftherios Venizelos International Airport
City: Athens
Country: Greece   Continent: Europe
LGAV METAR Weather: LGAV 021020Z 10010KT 060V120 9999 FEW025 SCT070 20/09 Q1011 NOSIG
LGAV Flight Activity (FlightAware)
LGAV Approach
Feed Status: UP   Listeners: 2
Listen right in your browser - requires Flash (in browser, requires Flash)
Click here to listen with your own player (launches your MP3 player)
LGAV Approach Audio Archives
FacilityFrequency
Athens Approach (Left Channel)130.025
Athens Approach (Left Channel)132.975
Athens Approach Director121.400
Athens Departure128.950


NOTICE

Unauthorized use prohibited. See LiveATC.net Terms of Service


Find LiveATC Audio Streams


Airport/ARTCC Code

Frequency
(e.g., 124.400, 128.75)
Site-wide search

Browse LiveATC Feeds
LiveATC Coverage Map
Top 50 LiveATC Feeds
Bad Weather Areas

LiveATC FAQ
Offer a LiveATC Feed
Contact LiveATC.net
Press Inquiries

LiveATC on iPhone
LiveATC on Android

Windows Phone
Windows 8/10

LiveATC Mobile
(Mobile browser)

ATC Audio Archives
Interesting Recordings

LiveATC Forums


Home Page
About LiveATC.net
Make a Donation
LiveATC Store

Terms of Use
Privacy Policy

Canadian Air Freqs

AIRMETs/SIGMETs

FAA Airport Status
Nat'l Airspace Status
Arrival Demand Charts


Server Software By:
Icecast.org
Liquidsoap